createdAt,value
2023-02-27T00:02:32.414Z,1009.88
2023-02-27T00:08:16.383Z,1009.93
2023-02-27T00:14:00.117Z,1009.94
2023-02-27T00:19:43.701Z,1009.93
2023-02-27T00:25:28.326Z,1009.9
2023-02-27T00:31:12.396Z,1009.92
2023-02-27T00:36:56.401Z,1009.9
2023-02-27T00:42:40.271Z,1009.91
2023-02-27T00:48:24.184Z,1009.92
2023-02-27T00:54:08.349Z,1009.89
2023-02-27T00:59:51.918Z,1009.93
2023-02-27T01:05:35.696Z,1009.9
2023-02-27T01:11:19.571Z,1009.88
2023-02-27T01:17:03.337Z,1009.86
2023-02-27T01:22:48.424Z,1009.95
2023-02-27T01:28:32.226Z,1009.93
2023-02-27T01:34:15.874Z,1009.94
2023-02-27T01:39:59.524Z,1009.96
2023-02-27T01:45:44.482Z,1009.88
2023-02-27T01:51:32.221Z,1009.85
2023-02-27T01:57:16.032Z,1009.8
2023-02-27T02:03:03.101Z,1009.77
2023-02-27T02:08:48.285Z,1009.69
2023-02-27T02:14:32.336Z,1009.71
2023-02-27T02:20:25.258Z,1009.68
2023-02-27T02:26:22.032Z,1009.62
2023-02-27T02:32:18.885Z,1009.64
2023-02-27T02:38:13.967Z,1009.69
2023-02-27T02:44:03.880Z,1009.76
2023-02-27T02:49:50.807Z,1009.8
2023-02-27T02:55:36.354Z,1009.85
2023-02-27T03:01:22.795Z,1009.83
2023-02-27T03:07:10.194Z,1009.89
2023-02-27T03:13:00.160Z,1009.93
2023-02-27T03:18:47.263Z,1009.93
2023-02-27T03:24:32.754Z,1009.99
2023-02-27T03:30:20.189Z,1010.04
2023-02-27T03:36:07.762Z,1009.99
2023-02-27T03:41:53.607Z,1009.99
2023-02-27T03:47:37.315Z,1010.06
2023-02-27T03:53:25.871Z,1010.08
2023-02-27T03:59:09.667Z,1010.06
2023-02-27T04:04:54.408Z,1010.1
2023-02-27T04:10:50.529Z,1010.17
2023-02-27T04:16:42.269Z,1010.18
2023-02-27T04:22:31.551Z,1010.18
2023-02-27T04:28:18.032Z,1010.27
2023-02-27T04:34:05.489Z,1010.35
2023-02-27T04:39:52.340Z,1010.35
2023-02-27T04:45:37.129Z,1010.37
2023-02-27T04:51:23.598Z,1010.37
2023-02-27T04:57:10.133Z,1010.39
2023-02-27T05:02:57.206Z,1010.4
2023-02-27T05:08:43.754Z,1010.41
2023-02-27T05:14:31.057Z,1010.5
2023-02-27T05:20:16.675Z,1010.54
2023-02-27T05:26:02.894Z,1010.53
2023-02-27T05:31:51.153Z,1010.52
2023-02-27T05:37:39.171Z,1010.52
2023-02-27T05:43:26.088Z,1010.48
2023-02-27T05:49:12.286Z,1010.51
2023-02-27T05:54:59.594Z,1010.53
2023-02-27T06:00:44.990Z,1010.5
2023-02-27T06:06:30.602Z,1010.52
2023-02-27T06:12:15.302Z,1010.64
2023-02-27T06:17:58.931Z,1010.66
2023-02-27T06:23:42.896Z,1010.7
2023-02-27T06:29:26.709Z,1010.79
2023-02-27T06:35:10.914Z,1010.89
2023-02-27T06:40:55.167Z,1010.89
2023-02-27T06:46:39.137Z,1011.03
2023-02-27T06:52:22.907Z,1011.1
2023-02-27T06:58:06.709Z,1011.16
2023-02-27T07:03:50.326Z,1011.18
2023-02-27T07:09:34.550Z,1011.3
2023-02-27T07:15:19.289Z,1011.3
2023-02-27T07:21:03.019Z,1011.39
2023-02-27T07:26:48.882Z,1011.38
2023-02-27T07:32:32.711Z,1011.46
2023-02-27T07:38:16.570Z,1011.45
2023-02-27T07:44:00.458Z,1011.52
2023-02-27T07:49:44.436Z,1011.55
2023-02-27T07:55:28.108Z,1011.58
2023-02-27T08:01:12.212Z,1011.74
2023-02-27T08:06:55.912Z,1011.79
2023-02-27T08:12:39.758Z,1011.84
2023-02-27T08:18:24.874Z,1011.83
2023-02-27T08:24:09.993Z,1011.86
2023-02-27T08:29:53.958Z,1011.87
2023-02-27T08:35:38.137Z,1011.97
2023-02-27T08:41:22.814Z,1011.97
2023-02-27T08:47:06.579Z,1011.97
2023-02-27T08:52:50.341Z,1012.08
2023-02-27T08:58:34.012Z,1012.03
2023-02-27T09:04:18.004Z,1012.01
2023-02-27T09:10:01.785Z,1012
2023-02-27T09:15:47.747Z,1011.95
2023-02-27T09:21:31.537Z,1011.98
2023-02-27T09:27:15.364Z,1012.01
2023-02-27T09:32:59.223Z,1011.96
2023-02-27T09:38:43.032Z,1012.02
2023-02-27T09:44:45.981Z,1012
2023-02-27T09:50:34.947Z,1012
2023-02-27T09:56:21.241Z,1012.01
2023-02-27T10:02:10.186Z,1012.05
2023-02-27T10:07:58.652Z,1012.06
2023-02-27T10:13:51.510Z,1012.17
2023-02-27T10:19:38.285Z,1012.13
2023-02-27T10:25:31.883Z,1012.14
2023-02-27T10:31:21.218Z,1012.11
2023-02-27T10:37:06.909Z,1012.09
2023-02-27T10:42:51.723Z,1012.07
2023-02-27T10:48:37.134Z,1012.12
2023-02-27T10:54:22.392Z,1012.1
2023-02-27T11:00:08.493Z,1012.04
2023-02-27T11:05:58.023Z,1012.04
2023-02-27T11:11:42.111Z,1012.05
2023-02-27T11:17:28.255Z,1011.99
2023-02-27T11:23:15.375Z,1012
2023-02-27T11:29:14.307Z,1011.91
2023-02-27T11:34:59.062Z,1011.86
2023-02-27T11:40:47.909Z,1011.71
2023-02-27T11:46:47.520Z,1011.69
2023-02-27T11:52:34.479Z,1011.65
2023-02-27T11:58:19.955Z,1011.61
2023-02-27T12:04:09.583Z,1011.62
2023-02-27T12:09:58.993Z,1011.54
2023-02-27T12:15:45.076Z,1011.5
2023-02-27T12:21:31.439Z,1011.53
2023-02-27T12:27:18.902Z,1011.39
2023-02-27T12:33:04.289Z,1011.28
2023-02-27T12:38:48.997Z,1011.17
2023-02-27T12:44:38.190Z,1011.12
2023-02-27T12:50:23.423Z,1011.05
2023-02-27T12:56:12.656Z,1011.06
2023-02-27T13:01:58.705Z,1011.1
2023-02-27T13:07:47.608Z,1011.04
2023-02-27T13:13:35.756Z,1010.99
2023-02-27T13:19:24.581Z,1010.98
2023-02-27T13:25:13.432Z,1010.92
2023-02-27T13:31:01.685Z,1010.98
2023-02-27T13:36:46.836Z,1010.97
2023-02-27T13:42:41.539Z,1010.95
2023-02-27T13:48:36.756Z,1010.9
2023-02-27T13:54:24.820Z,1010.85
2023-02-27T14:00:17.173Z,1010.86
2023-02-27T14:06:02.904Z,1010.82
2023-02-27T14:11:51.481Z,1010.8
2023-02-27T14:17:44.683Z,1010.81
2023-02-27T14:23:28.803Z,1010.85
2023-02-27T14:29:14.803Z,1010.85
2023-02-27T14:34:59.636Z,1010.87
2023-02-27T14:40:49.947Z,1010.83
2023-02-27T14:46:36.765Z,1010.79
2023-02-27T14:52:24.251Z,1010.86
2023-02-27T14:58:16.218Z,1010.77
2023-02-27T15:04:01.268Z,1010.75
2023-02-27T15:09:47.492Z,1010.68
2023-02-27T15:15:31.196Z,1010.77
2023-02-27T15:21:16.547Z,1010.77
2023-02-27T15:27:02.720Z,1010.76
2023-02-27T15:32:46.482Z,1010.81
2023-02-27T15:38:31.388Z,1010.87
2023-02-27T15:44:15.703Z,1010.93
2023-02-27T15:50:00.376Z,1010.96
2023-02-27T15:55:45.689Z,1010.89
2023-02-27T16:01:31.899Z,1010.79
2023-02-27T16:07:18.305Z,1010.84
2023-02-27T16:13:09.002Z,1010.92
2023-02-27T16:18:54.571Z,1010.89
2023-02-27T16:24:38.550Z,1010.95
2023-02-27T16:30:22.624Z,1010.98
2023-02-27T16:36:14.262Z,1011.01
2023-02-27T16:41:59.007Z,1010.95
2023-02-27T16:47:42.979Z,1011
2023-02-27T16:53:26.838Z,1011.02
2023-02-27T16:59:15.549Z,1011.14
2023-02-27T17:04:59.308Z,1011.21
2023-02-27T17:10:43.394Z,1011.21
2023-02-27T17:16:27.894Z,1011.32
2023-02-27T17:22:12.890Z,1011.34
2023-02-27T17:27:56.492Z,1011.47
2023-02-27T17:33:41.599Z,1011.54
2023-02-27T17:39:25.173Z,1011.56
2023-02-27T17:45:09.799Z,1011.53
2023-02-27T17:50:53.693Z,1011.56
2023-02-27T17:56:38.336Z,1011.59
2023-02-27T18:02:22.290Z,1011.58
2023-02-27T18:08:06.239Z,1011.59
2023-02-27T18:13:50.236Z,1011.53
2023-02-27T18:19:34.044Z,1011.6
2023-02-27T18:25:17.799Z,1011.76
2023-02-27T18:31:02.463Z,1011.72
2023-02-27T18:36:47.259Z,1011.73
2023-02-27T18:42:31.070Z,1011.74
2023-02-27T18:48:14.679Z,1011.67
2023-02-27T18:53:58.268Z,1011.66
2023-02-27T18:59:42.199Z,1011.6
2023-02-27T19:05:25.797Z,1011.59
2023-02-27T19:11:09.698Z,1011.69
2023-02-27T19:16:53.592Z,1011.74
2023-02-27T19:22:37.438Z,1011.71
2023-02-27T19:28:21.976Z,1011.8
2023-02-27T19:34:05.880Z,1011.85
2023-02-27T19:39:50.009Z,1011.76
2023-02-27T19:45:34.864Z,1011.76
2023-02-27T19:51:19.047Z,1011.82
2023-02-27T19:57:02.840Z,1011.8
2023-02-27T20:02:46.759Z,1011.8
2023-02-27T20:08:30.534Z,1011.85
2023-02-27T20:14:15.947Z,1011.94
2023-02-27T20:19:59.813Z,1011.93
2023-02-27T20:25:43.465Z,1012.01
2023-02-27T20:31:29.507Z,1012.07
2023-02-27T20:37:15.378Z,1012.1
2023-02-27T20:42:59.068Z,1012.08
2023-02-27T20:48:43.428Z,1012.04
2023-02-27T20:54:27.238Z,1012.01
2023-02-27T21:00:19.342Z,1012.02
2023-02-27T21:06:02.864Z,1011.97
2023-02-27T21:11:46.684Z,1012.05
2023-02-27T21:17:30.363Z,1012
2023-02-27T21:23:13.995Z,1012.01
2023-02-27T21:28:59.135Z,1011.99
2023-02-27T21:34:42.977Z,1012
2023-02-27T21:40:26.891Z,1011.96
2023-02-27T21:46:12.491Z,1011.88
2023-02-27T21:51:56.427Z,1011.97
2023-02-27T21:57:40.585Z,1011.91
2023-02-27T22:03:24.115Z,1011.96
2023-02-27T22:09:07.996Z,1011.89
2023-02-27T22:14:51.760Z,1011.86
2023-02-27T22:20:36.278Z,1011.84
2023-02-27T22:26:22.063Z,1011.89
2023-02-27T22:32:06.447Z,1011.93
2023-02-27T22:37:50.376Z,1011.92
2023-02-27T22:43:34.469Z,1011.94
2023-02-27T22:49:18.991Z,1012.04
2023-02-27T22:55:02.765Z,1012.04
2023-02-27T23:00:47.553Z,1012.05
2023-02-27T23:06:31.972Z,1012.08
2023-02-27T23:12:15.803Z,1012.15
2023-02-27T23:17:59.786Z,1012.17
2023-02-27T23:23:43.570Z,1012.22
2023-02-27T23:29:27.242Z,1012.28
2023-02-27T23:35:11.370Z,1012.29
2023-02-27T23:40:55.080Z,1012.31
2023-02-27T23:46:39.929Z,1012.3
2023-02-27T23:52:23.608Z,1012.32
2023-02-27T23:58:08.456Z,1012.36
